Mage, Brazil
Current Conditions -  °F | °C
As of 10:00 PM on Sunday 21 Dec 2014 (Local Time) from SBGL Reporting Station
Scattered Clouds Scattered Clouds  
Wind Chill: 86°   Ceiling: Unl
Heat Index: 89°   Visibility: 6mi
Dew Point: 68°   Wind: 7mph
Humidity: 55%   Direction: 320°NW
Pressure: 29.77"   Gusts: NA
Location:  22.65°S, 43.05°W
Report Text: SBGL 220000Z 32006KT 9999 FEW025 SCT100 30/20 Q1008
Loading
Personal Weather Stations






























Interactive Weather Map New forecast layout! Learn more

10-Day Weather Forecast

Advertisements
Track Severe Weather on mobile